Time;durP1;ratioP1;P1;durP2;ratioP2;P2;SDS_P1;SDS_P2;PMS_P1;PMS_P2;Temp;Humidity;BMP_temperature;BMP_pressure;BME280_temperature;BME280_humidity;BME280_pressure;Samples;Min_cycle;Max_cycle;Signal;HPM_P1;HPM_P2
2022/07/14 00:00:11;;;;;;;5.30;3.63;;;;;;;;;;4993623;28;20027;-70
2022/07/14 00:02:37;;;;;;;8.88;4.05;;;;;;;;;;4993314;28;20054;-71
2022/07/14 00:05:03;;;;;;;8.05;3.65;;;;;;;;;;4993541;28;20060;-70
2022/07/14 00:07:29;;;;;;;4.43;2.75;;;;;;;;;;4993405;28;20062;-71
2022/07/14 00:09:55;;;;;;;7.22;3.38;;;;;;;;;;4993494;28;20045;-71
2022/07/14 00:12:22;;;;;;;6.70;3.40;;;;;;;;;;4993442;28;20023;-71
2022/07/14 00:14:48;;;;;;;8.30;3.40;;;;;;;;;;4993903;28;20496;-70
2022/07/14 00:17:14;;;;;;;5.75;3.10;;;;;;;;;;4993373;28;20023;-70
2022/07/14 00:19:39;;;;;;;6.75;3.60;;;;;;;;;;4975942;28;20041;-70
2022/07/14 00:22:05;;;;;;;5.57;3.72;;;;;;;;;;4993350;28;20409;-70
2022/07/14 00:24:31;;;;;;;6.53;3.67;;;;;;;;;;4993354;28;20034;-70
2022/07/14 00:26:57;;;;;;;7.88;3.55;;;;;;;;;;4993504;28;20086;-71
2022/07/14 00:29:23;;;;;;;5.05;3.10;;;;;;;;;;4995955;28;20030;-71
2022/07/14 00:31:49;;;;;;;7.07;3.97;;;;;;;;;;4996867;28;20029;-70
2022/07/14 00:34:15;;;;;;;7.22;3.95;;;;;;;;;;4979387;28;20034;-70
2022/07/14 00:36:42;;;;;;;6.95;4.07;;;;;;;;;;4997016;28;20038;-71
2022/07/14 00:39:08;;;;;;;8.45;3.85;;;;;;;;;;4996730;28;20034;-69
2022/07/14 00:41:34;;;;;;;8.70;4.13;;;;;;;;;;4996990;28;20097;-71
2022/07/14 00:44:01;;;;;;;8.00;3.90;;;;;;;;;;4996610;28;20038;-70
2022/07/14 00:46:27;;;;;;;6.40;3.70;;;;;;;;;;4996561;28;20388;-70
2022/07/14 00:48:53;;;;;;;6.95;3.85;;;;;;;;;;4996571;28;20023;-69
2022/07/14 00:51:19;;;;;;;6.30;4.07;;;;;;;;;;4996590;28;20023;-71
2022/07/14 00:53:51;;;;;;;7.32;3.70;;;;;;;;;;4996508;28;20126;-70
2022/07/14 00:56:17;;;;;;;7.57;4.38;;;;;;;;;;4997074;28;20476;-71
2022/07/14 00:58:43;;;;;;;5.93;3.72;;;;;;;;;;4996358;28;20085;-71
2022/07/14 01:01:09;;;;;;;5.18;3.60;;;;;;;;;;4996557;28;20101;-70
2022/07/14 01:03:35;;;;;;;6.82;3.20;;;;;;;;;;4996146;28;20439;-69
2022/07/14 01:06:01;;;;;;;7.80;4.68;;;;;;;;;;4996502;28;20023;-70
2022/07/14 01:08:27;;;;;;;8.50;4.72;;;;;;;;;;4996141;28;20026;-70
2022/07/14 01:10:53;;;;;;;7.50;3.80;;;;;;;;;;4996168;28;20549;-70
2022/07/14 01:13:20;;;;;;;8.10;4.60;;;;;;;;;;4996633;28;20027;-71
2022/07/14 01:15:46;;;;;;;8.77;4.07;;;;;;;;;;4996096;28;20019;-70
2022/07/14 01:18:12;;;;;;;7.35;4.60;;;;;;;;;;4996041;28;20100;-69
2022/07/14 01:20:38;;;;;;;8.18;4.38;;;;;;;;;;4996008;28;20457;-69
2022/07/14 01:23:04;;;;;;;6.55;4.20;;;;;;;;;;4995971;28;20057;-71
2022/07/14 01:25:31;;;;;;;6.90;4.18;;;;;;;;;;4995892;28;20484;-71
2022/07/14 01:27:57;;;;;;;7.40;4.45;;;;;;;;;;4995771;28;20022;-70
2022/07/14 01:30:23;;;;;;;8.82;4.65;;;;;;;;;;4995839;28;20101;-71
2022/07/14 01:32:49;;;;;;;8.20;4.68;;;;;;;;;;4996054;28;20033;-71
2022/07/14 01:35:15;;;;;;;7.30;4.88;;;;;;;;;;4995975;28;20030;-70
2022/07/14 01:37:41;;;;;;;9.63;5.35;;;;;;;;;;4995929;28;20034;-71
2022/07/14 01:40:07;;;;;;;10.98;5.78;;;;;;;;;;4994639;28;20432;-69
2022/07/14 01:42:34;;;;;;;11.35;7.05;;;;;;;;;;4996123;28;20106;-71
2022/07/14 01:45:00;;;;;;;9.35;5.95;;;;;;;;;;4996066;28;20030;-71
2022/07/14 01:47:26;;;;;;;11.23;6.20;;;;;;;;;;4995435;28;20113;-70
2022/07/14 01:49:52;;;;;;;13.88;7.28;;;;;;;;;;4995687;28;20022;-70
2022/07/14 01:52:18;;;;;;;12.57;7.20;;;;;;;;;;4995673;28;20101;-70
2022/07/14 01:54:44;;;;;;;12.93;6.22;;;;;;;;;;4995325;28;20023;-69
2022/07/14 01:57:10;;;;;;;9.18;6.45;;;;;;;;;;4995277;28;20396;-72
2022/07/14 01:59:36;;;;;;;11.32;7.35;;;;;;;;;;4995439;28;20026;-70
2022/07/14 02:02:02;;;;;;;9.88;5.75;;;;;;;;;;4995286;28;20113;-71
2022/07/14 02:04:28;;;;;;;12.05;6.78;;;;;;;;;;4995480;28;20035;-70
2022/07/14 02:06:55;;;;;;;12.95;7.50;;;;;;;;;;4995025;28;20038;-69
2022/07/14 02:09:22;;;;;;;11.93;7.93;;;;;;;;;;4995043;28;20042;-70
2022/07/14 02:14:34;;;;;;;12.52;7.78;;;;;;;;;;4995554;28;20190;-70
2022/07/14 02:17:00;;;;;;;14.60;7.70;;;;;;;;;;4994973;28;20030;-70
2022/07/14 02:19:26;;;;;;;10.20;6.82;;;;;;;;;;4995122;28;20033;-71
2022/07/14 02:21:53;;;;;;;11.18;7.68;;;;;;;;;;4995101;28;20034;-71
2022/07/14 02:24:20;;;;;;;9.50;6.40;;;;;;;;;;4994820;28;20088;-70
2022/07/14 02:26:46;;;;;;;14.30;8.77;;;;;;;;;;4994966;28;20057;-70
2022/07/14 02:29:12;;;;;;;12.23;8.25;;;;;;;;;;4994668;28;20034;-70
2022/07/14 02:31:38;;;;;;;12.30;8.82;;;;;;;;;;4994634;28;20019;-70
2022/07/14 02:34:05;;;;;;;14.50;8.77;;;;;;;;;;4994582;28;20068;-70
2022/07/14 02:36:32;;;;;;;9.40;6.43;;;;;;;;;;4994820;28;20105;-69
2022/07/14 02:38:58;;;;;;;12.90;9.15;;;;;;;;;;4994504;28;20062;-70
2022/07/14 02:41:24;;;;;;;15.05;10.30;;;;;;;;;;4994987;28;20022;-70
2022/07/14 02:43:50;;;;;;;14.95;9.35;;;;;;;;;;4994443;28;20026;-71
2022/07/14 02:46:16;;;;;;;16.08;9.27;;;;;;;;;;4994564;28;20026;-70
2022/07/14 02:48:42;;;;;;;14.80;9.65;;;;;;;;;;4994902;28;20030;-71
2022/07/14 02:51:09;;;;;;;13.10;9.00;;;;;;;;;;4994145;28;20022;-69
2022/07/14 02:53:35;;;;;;;13.23;9.60;;;;;;;;;;4976862;28;20037;-71
2022/07/14 02:56:02;;;;;;;12.02;9.25;;;;;;;;;;4994248;28;20077;-70
2022/07/14 02:58:28;;;;;;;11.77;7.47;;;;;;;;;;4994214;28;20396;-71
2022/07/14 03:00:54;;;;;;;11.38;7.75;;;;;;;;;;4994084;28;20026;-70
2022/07/14 03:03:21;;;;;;;17.05;10.00;;;;;;;;;;4994117;28;20046;-70
2022/07/14 03:05:47;;;;;;;15.25;11.63;;;;;;;;;;4994323;28;20028;-70
2022/07/14 03:08:13;;;;;;;15.15;12.40;;;;;;;;;;4994279;28;20061;-70
2022/07/14 03:10:39;;;;;;;16.00;11.82;;;;;;;;;;4994289;28;20096;-69
2022/07/14 03:13:06;;;;;;;16.00;11.95;;;;;;;;;;4993994;28;20050;-70
2022/07/14 03:15:32;;;;;;;14.65;12.35;;;;;;;;;;4994537;28;20022;-70
2022/07/14 03:17:59;;;;;;;18.00;13.32;;;;;;;;;;4994006;28;20088;-70
2022/07/14 03:20:25;;;;;;;17.15;14.48;;;;;;;;;;4994178;28;20488;-69
2022/07/14 03:22:51;;;;;;;19.23;15.10;;;;;;;;;;4993912;28;20054;-70
2022/07/14 03:25:17;;;;;;;16.38;13.32;;;;;;;;;;4994194;28;20424;-70
2022/07/14 03:27:46;;;;;;;17.33;12.85;;;;;;;;;;4993997;28;20027;-70
2022/07/14 03:30:12;;;;;;;16.45;14.05;;;;;;;;;;4993748;28;20061;-70
2022/07/14 03:32:42;;;;;;;17.50;13.98;;;;;;;;;;4993794;28;20023;-69
2022/07/14 03:35:08;;;;;;;17.27;12.85;;;;;;;;;;4993875;28;20026;-70
2022/07/14 03:37:35;;;;;;;17.38;13.77;;;;;;;;;;4993721;28;20511;-70
2022/07/14 03:40:02;;;;;;;18.33;13.55;;;;;;;;;;4993995;28;20365;-70
2022/07/14 03:42:28;;;;;;;17.63;12.63;;;;;;;;;;4993707;28;20027;-70
2022/07/14 03:44:55;;;;;;;14.63;12.00;;;;;;;;;;4993976;28;20034;-70
2022/07/14 03:47:21;;;;;;;13.77;10.90;;;;;;;;;;4993573;28;20026;-70
2022/07/14 03:49:47;;;;;;;15.70;11.57;;;;;;;;;;4994186;28;20022;-69
2022/07/14 03:52:13;;;;;;;15.00;11.40;;;;;;;;;;4993877;28;20098;-71
2022/07/14 03:54:39;;;;;;;16.27;12.45;;;;;;;;;;4993616;28;20053;-69
2022/07/14 03:57:05;;;;;;;13.95;10.52;;;;;;;;;;4976113;28;20026;-71
2022/07/14 03:59:31;;;;;;;13.80;10.13;;;;;;;;;;4993466;28;20035;-70
2022/07/14 04:01:57;;;;;;;13.38;9.82;;;;;;;;;;4993898;28;20477;-70
2022/07/14 04:04:23;;;;;;;19.83;12.07;;;;;;;;;;4978430;28;20092;-69
2022/07/14 04:06:49;;;;;;;20.13;12.35;;;;;;;;;;4997570;28;20027;-70
2022/07/14 04:09:15;;;;;;;15.38;10.65;;;;;;;;;;4997290;28;20465;-70
2022/07/14 04:11:41;;;;;;;12.43;9.55;;;;;;;;;;4997216;28;20023;-71
2022/07/14 04:14:07;;;;;;;13.27;10.63;;;;;;;;;;4997701;28;20030;-71
2022/07/14 04:16:33;;;;;;;16.88;12.23;;;;;;;;;;4997466;28;20026;-69
2022/07/14 04:18:59;;;;;;;15.63;12.45;;;;;;;;;;4997123;28;20034;-71
2022/07/14 04:21:25;;;;;;;15.98;11.55;;;;;;;;;;4997094;28;20484;-69
2022/07/14 04:23:51;;;;;;;13.98;10.50;;;;;;;;;;4997066;28;20180;-70
2022/07/14 04:26:17;;;;;;;14.55;11.32;;;;;;;;;;4997184;28;20496;-70
2022/07/14 04:28:43;;;;;;;13.95;11.65;;;;;;;;;;4997227;28;20026;-70
2022/07/14 04:31:11;;;;;;;15.50;12.57;;;;;;;;;;4997494;28;20026;-70
2022/07/14 04:33:37;;;;;;;19.25;12.85;;;;;;;;;;4996916;28;20026;-69
2022/07/14 04:36:03;;;;;;;16.75;12.77;;;;;;;;;;4996819;28;20018;-70
2022/07/14 04:38:30;;;;;;;15.43;11.63;;;;;;;;;;4996791;28;20065;-69
2022/07/14 04:40:56;;;;;;;13.75;11.30;;;;;;;;;;4996954;28;20074;-70
2022/07/14 04:43:22;;;;;;;14.98;11.90;;;;;;;;;;4997177;28;20081;-71
2022/07/14 04:45:48;;;;;;;16.40;12.52;;;;;;;;;;4996684;28;20026;-70
2022/07/14 04:48:14;;;;;;;16.38;13.20;;;;;;;;;;4996482;28;20393;-70
2022/07/14 04:53:25;;;;;;;15.20;12.13;;;;;;;;;;4996536;28;20037;-69
2022/07/14 04:55:51;;;;;;;14.60;11.40;;;;;;;;;;4996746;28;20101;-70
2022/07/14 04:58:18;;;;;;;17.48;13.27;;;;;;;;;;4996420;28;20487;-71
2022/07/14 05:00:44;;;;;;;14.48;12.18;;;;;;;;;;4996322;28;20029;-70
2022/07/14 05:03:10;;;;;;;16.10;12.10;;;;;;;;;;4996263;28;20121;-69
2022/07/14 05:05:36;;;;;;;15.40;12.07;;;;;;;;;;4996543;28;20515;-69
2022/07/14 05:08:02;;;;;;;15.40;12.35;;;;;;;;;;4996117;28;20073;-69
2022/07/14 05:10:28;;;;;;;15.02;11.57;;;;;;;;;;4996210;28;20050;-71
2022/07/14 05:12:54;;;;;;;20.15;13.10;;;;;;;;;;4978676;28;20026;-71
2022/07/14 05:15:20;;;;;;;16.13;12.57;;;;;;;;;;4979057;28;20027;-70
2022/07/14 05:17:46;;;;;;;16.38;12.63;;;;;;;;;;4996101;28;20480;-70
2022/07/14 05:20:12;;;;;;;16.88;12.65;;;;;;;;;;4995990;28;20037;-71
2022/07/14 05:22:39;;;;;;;18.17;14.00;;;;;;;;;;4995967;28;20481;-70
2022/07/14 05:25:08;;;;;;;18.83;14.38;;;;;;;;;;4995925;28;20030;-70
2022/07/14 05:27:35;;;;;;;20.30;14.40;;;;;;;;;;4996121;28;20062;-69
2022/07/14 05:30:03;;;;;;;17.67;13.45;;;;;;;;;;4995859;28;20022;-70
2022/07/14 05:32:29;;;;;;;16.55;13.75;;;;;;;;;;4995835;28;20065;-70
2022/07/14 05:34:56;;;;;;;19.23;14.10;;;;;;;;;;4996096;28;20453;-71
2022/07/14 05:37:21;;;;;;;20.08;15.15;;;;;;;;;;4995704;28;20026;-70
2022/07/14 05:39:47;;;;;;;19.00;14.23;;;;;;;;;;4995866;28;20027;-70
2022/07/14 05:42:14;;;;;;;19.50;13.95;;;;;;;;;;4995585;28;20030;-70
2022/07/14 05:44:40;;;;;;;21.73;15.35;;;;;;;;;;4995597;28;20027;-70
2022/07/14 05:47:06;;;;;;;21.88;15.90;;;;;;;;;;4995696;28;20106;-70
2022/07/14 05:49:32;;;;;;;22.55;16.75;;;;;;;;;;4995768;28;20023;-69
2022/07/14 05:52:00;;;;;;;19.45;14.85;;;;;;;;;;4995726;28;20026;-70
2022/07/14 05:54:26;;;;;;;19.05;13.50;;;;;;;;;;4995347;28;20014;-70
2022/07/14 05:56:52;;;;;;;16.42;12.63;;;;;;;;;;4995300;28;20157;-71
2022/07/14 05:59:18;;;;;;;21.23;15.10;;;;;;;;;;4995198;28;20153;-70
2022/07/14 06:01:44;;;;;;;21.85;16.10;;;;;;;;;;4995258;28;20026;-69
2022/07/14 06:04:10;;;;;;;16.40;13.82;;;;;;;;;;4977294;28;20049;-70
2022/07/14 06:06:36;;;;;;;20.40;14.27;;;;;;;;;;4995033;28;20473;-70
2022/07/14 06:09:03;;;;;;;17.42;13.90;;;;;;;;;;4995075;28;20073;-70
2022/07/14 06:11:30;;;;;;;17.45;12.25;;;;;;;;;;4995560;28;20110;-69
2022/07/14 06:13:56;;;;;;;16.27;12.18;;;;;;;;;;4995762;28;20026;-69
2022/07/14 06:16:22;;;;;;;15.93;12.05;;;;;;;;;;4995494;28;20468;-69
2022/07/14 06:18:48;;;;;;;14.43;10.88;;;;;;;;;;4994870;28;20061;-70
2022/07/14 06:21:14;;;;;;;15.43;11.20;;;;;;;;;;4994871;28;20102;-70
2022/07/14 06:23:40;;;;;;;12.32;9.80;;;;;;;;;;4994792;28;20389;-70
2022/07/14 06:26:08;;;;;;;15.27;11.07;;;;;;;;;;4994256;28;20033;-70
2022/07/14 06:28:34;;;;;;;11.38;9.07;;;;;;;;;;4995234;28;20026;-72
2022/07/14 06:31:00;;;;;;;14.77;10.68;;;;;;;;;;4994961;28;20022;-70
2022/07/14 06:33:26;;;;;;;11.30;9.30;;;;;;;;;;4994874;28;20362;-71
2022/07/14 06:35:52;;;;;;;11.20;8.10;;;;;;;;;;4994853;28;20026;-70
2022/07/14 06:38:18;;;;;;;14.82;9.20;;;;;;;;;;4994889;28;20502;-69
2022/07/14 06:40:44;;;;;;;14.18;8.98;;;;;;;;;;4994549;28;20112;-71
2022/07/14 06:43:10;;;;;;;11.02;7.40;;;;;;;;;;4994447;28;20027;-71
2022/07/14 06:45:36;;;;;;;10.05;7.20;;;;;;;;;;4994464;28;20173;-70
2022/07/14 06:48:02;;;;;;;12.68;5.93;;;;;;;;;;4994288;28;20544;-69
2022/07/14 06:50:28;;;;;;;7.20;5.93;;;;;;;;;;4994386;28;20101;-69
2022/07/14 06:52:54;;;;;;;10.65;5.72;;;;;;;;;;4994326;28;20022;-70
2022/07/14 06:55:21;;;;;;;6.00;4.28;;;;;;;;;;4994314;28;20026;-69
2022/07/14 06:57:47;;;;;;;7.47;4.22;;;;;;;;;;4994228;28;20114;-71
2022/07/14 07:00:13;;;;;;;8.85;4.72;;;;;;;;;;4994237;28;20073;-70
2022/07/14 07:02:40;;;;;;;7.45;4.18;;;;;;;;;;4994008;28;20129;-70
2022/07/14 07:07:51;;;;;;;10.40;4.80;;;;;;;;;;4993945;28;20098;-70
2022/07/14 07:10:18;;;;;;;5.78;3.20;;;;;;;;;;4994045;28;20049;-70
2022/07/14 07:12:44;;;;;;;8.57;3.97;;;;;;;;;;4993975;28;20026;-71
2022/07/14 07:15:10;;;;;;;6.22;3.17;;;;;;;;;;4994857;28;20407;-71
2022/07/14 07:17:36;;;;;;;6.88;3.10;;;;;;;;;;4994546;28;20054;-71
2022/07/14 07:20:03;;;;;;;7.95;2.90;;;;;;;;;;4994239;28;20077;-70
2022/07/14 07:22:29;;;;;;;7.05;3.10;;;;;;;;;;4993958;28;20484;-70
2022/07/14 07:24:56;;;;;;;7.57;3.28;;;;;;;;;;4993862;28;20484;-71
2022/07/14 07:27:22;;;;;;;6.53;3.03;;;;;;;;;;4976277;28;20443;-70
2022/07/14 07:29:48;;;;;;;6.93;2.88;;;;;;;;;;4993791;28;20030;-70
2022/07/14 07:32:14;;;;;;;4.63;2.22;;;;;;;;;;4993833;28;20102;-71
2022/07/14 07:34:40;;;;;;;4.93;2.65;;;;;;;;;;4994079;28;20058;-71
2022/07/14 07:37:06;;;;;;;6.78;2.38;;;;;;;;;;4993753;28;20472;-70
2022/07/14 07:39:34;;;;;;;6.97;2.78;;;;;;;;;;4996973;28;20035;-70
2022/07/14 07:42:01;;;;;;;8.00;2.67;;;;;;;;;;4997921;28;20022;-71
2022/07/14 07:44:28;;;;;;;6.93;2.60;;;;;;;;;;4997749;28;20062;-71
2022/07/14 07:46:54;;;;;;;6.75;3.03;;;;;;;;;;4998183;28;20027;-71
2022/07/14 07:49:20;;;;;;;6.72;3.08;;;;;;;;;;4980209;28;20027;-70
2022/07/14 07:51:46;;;;;;;5.47;2.25;;;;;;;;;;4997653;28;20559;-71
2022/07/14 07:54:12;;;;;;;7.65;2.50;;;;;;;;;;4997886;28;20225;-69
2022/07/14 07:56:38;;;;;;;4.95;2.30;;;;;;;;;;4997855;28;20022;-70
2022/07/14 07:59:04;;;;;;;5.38;2.10;;;;;;;;;;4997522;28;20455;-70
2022/07/14 08:01:30;;;;;;;6.53;1.75;;;;;;;;;;4997424;28;20025;-71
2022/07/14 08:03:56;;;;;;;8.43;1.90;;;;;;;;;;4997331;28;20069;-71
2022/07/14 08:06:22;;;;;;;5.00;1.92;;;;;;;;;;4997388;28;20018;-70
2022/07/14 08:08:48;;;;;;;5.97;1.83;;;;;;;;;;4997346;28;20110;-71
2022/07/14 08:11:14;;;;;;;4.78;1.95;;;;;;;;;;4997604;28;20031;-71
2022/07/14 08:13:40;;;;;;;4.40;1.63;;;;;;;;;;4997243;28;20531;-70
2022/07/14 08:16:06;;;;;;;5.95;1.95;;;;;;;;;;4997732;28;20066;-71
2022/07/14 08:18:32;;;;;;;3.03;1.75;;;;;;;;;;4997197;28;20018;-70
2022/07/14 08:20:58;;;;;;;5.40;1.80;;;;;;;;;;4997102;28;20510;-71
2022/07/14 08:23:26;;;;;;;7.57;1.55;;;;;;;;;;4997085;28;20113;-70
2022/07/14 08:25:53;;;;;;;4.23;1.60;;;;;;;;;;4979544;28;20113;-70
2022/07/14 08:28:19;;;;;;;4.75;1.83;;;;;;;;;;4979204;28;20061;-70
2022/07/14 08:30:45;;;;;;;6.68;1.83;;;;;;;;;;4997208;28;20022;-71
2022/07/14 08:33:11;;;;;;;5.30;1.88;;;;;;;;;;4996880;28;20022;-71
2022/07/14 08:35:37;;;;;;;3.85;1.63;;;;;;;;;;4997388;28;20109;-70
2022/07/14 08:38:03;;;;;;;2.97;1.50;;;;;;;;;;4996827;28;20022;-70
2022/07/14 08:40:30;;;;;;;5.75;2.00;;;;;;;;;;4997089;28;20428;-72
2022/07/14 08:42:57;;;;;;;5.00;2.08;;;;;;;;;;4997035;28;20027;-70
2022/07/14 08:45:24;;;;;;;3.92;1.70;;;;;;;;;;4996970;28;20046;-70
2022/07/14 08:47:51;;;;;;;6.10;1.70;;;;;;;;;;4996571;28;20033;-71
2022/07/14 08:50:18;;;;;;;5.60;1.90;;;;;;;;;;4996353;28;20034;-70
2022/07/14 08:52:45;;;;;;;4.22;1.88;;;;;;;;;;4996540;28;20037;-70
2022/07/14 08:55:12;;;;;;;3.95;1.80;;;;;;;;;;4996567;28;20036;-71
2022/07/14 08:57:39;;;;;;;4.78;1.90;;;;;;;;;;4996508;28;20077;-71
2022/07/14 09:00:08;;;;;;;5.03;1.67;;;;;;;;;;4978901;28;20476;-71
2022/07/14 09:02:34;;;;;;;6.68;1.85;;;;;;;;;;4978776;28;20046;-71
2022/07/14 09:05:00;;;;;;;4.18;1.70;;;;;;;;;;4996327;28;20084;-71
2022/07/14 09:07:53;;;;;;;2.78;1.58;;;;;;;;;;4996207;28;20030;-72
2022/07/14 09:10:23;;;;;;;5.80;1.77;;;;;;;;;;4992196;28;20125;-71
2022/07/14 09:12:49;;;;;;;3.40;1.20;;;;;;;;;;4996800;28;20559;-71
2022/07/14 09:18:01;;;;;;;4.70;1.30;;;;;;;;;;4995944;28;20089;-71
2022/07/14 09:20:28;;;;;;;5.32;1.90;;;;;;;;;;4996298;28;20034;-70
2022/07/14 09:22:56;;;;;;;3.22;1.73;;;;;;;;;;4996284;28;20073;-70
2022/07/14 09:25:23;;;;;;;2.70;1.60;;;;;;;;;;4978500;28;20491;-71
2022/07/14 09:27:49;;;;;;;6.05;1.77;;;;;;;;;;4996163;28;20062;-70
2022/07/14 09:30:16;;;;;;;3.95;1.70;;;;;;;;;;4996143;28;20129;-71
2022/07/14 09:32:56;;;;;;;5.38;2.00;;;;;;;;;;4995862;28;20029;-71
2022/07/14 09:35:34;;;;;;;4.30;1.77;;;;;;;;;;4996049;28;20084;-71
2022/07/14 09:38:02;;;;;;;3.80;1.65;;;;;;;;;;4996273;28;20033;-71
2022/07/14 09:40:32;;;;;;;6.15;1.85;;;;;;;;;;4995710;28;20134;-71
2022/07/14 09:43:00;;;;;;;4.50;1.80;;;;;;;;;;4995933;28;20054;-71
2022/07/14 09:45:34;;;;;;;5.20;1.40;;;;;;;;;;4995645;28;20034;-71
2022/07/14 09:48:02;;;;;;;4.30;1.60;;;;;;;;;;4995466;28;20058;-70
2022/07/14 09:50:45;;;;;;;4.90;1.90;;;;;;;;;;4996010;28;20030;-70
2022/07/14 09:53:16;;;;;;;3.42;1.35;;;;;;;;;;4995985;28;20084;-71
2022/07/14 09:55:46;;;;;;;5.40;1.50;;;;;;;;;;4995490;28;20022;-70
2022/07/14 09:58:13;;;;;;;2.40;1.50;;;;;;;;;;4995910;28;20106;-71
2022/07/14 10:00:40;;;;;;;6.68;1.75;;;;;;;;;;4994537;28;20027;-71
2022/07/14 10:03:07;;;;;;;2.75;1.50;;;;;;;;;;4994956;28;20050;-71
2022/07/14 10:05:34;;;;;;;4.97;1.73;;;;;;;;;;4995174;28;20034;-71
2022/07/14 10:08:02;;;;;;;3.80;1.35;;;;;;;;;;4995349;28;20050;-70
2022/07/14 10:10:28;;;;;;;5.40;1.63;;;;;;;;;;4977691;28;20058;-71
2022/07/14 10:12:55;;;;;;;3.78;1.50;;;;;;;;;;4995316;28;20054;-71
2022/07/14 10:15:22;;;;;;;3.13;1.63;;;;;;;;;;4995574;28;20378;-70
2022/07/14 10:17:48;;;;;;;4.57;1.50;;;;;;;;;;4995251;28;20551;-71
2022/07/14 10:20:16;;;;;;;4.53;1.60;;;;;;;;;;4994889;28;20109;-70
2022/07/14 10:22:43;;;;;;;3.58;2.10;;;;;;;;;;4994922;28;20023;-70
2022/07/14 10:25:10;;;;;;;2.72;1.38;;;;;;;;;;4994869;28;20057;-71
2022/07/14 10:27:39;;;;;;;7.82;1.92;;;;;;;;;;4994735;28;20030;-72
2022/07/14 10:30:05;;;;;;;3.90;1.67;;;;;;;;;;4994712;28;20177;-70
2022/07/14 10:32:35;;;;;;;4.45;1.85;;;;;;;;;;4994964;28;20034;-71
2022/07/14 10:35:01;;;;;;;;;;;;;;;;;;4995315;28;20026;-70
2022/07/14 10:37:36;;;;;;;3.20;1.65;;;;;;;;;;4994649;28;19993;-70
2022/07/14 10:40:21;;;;;;;5.25;1.50;;;;;;;;;;4976831;28;20030;-71
2022/07/14 10:42:50;;;;;;;3.92;1.55;;;;;;;;;;4994838;28;20027;-70
2022/07/14 10:45:16;;;;;;;4.07;1.80;;;;;;;;;;4994553;28;20049;-70
2022/07/14 10:47:48;;;;;;;3.20;1.33;;;;;;;;;;4994371;28;20037;-70
2022/07/14 10:50:18;;;;;;;3.22;1.60;;;;;;;;;;4994686;28;20022;-71
2022/07/14 10:52:56;;;;;;;4.57;1.65;;;;;;;;;;4994688;28;20064;-71
2022/07/14 10:55:23;;;;;;;7.70;1.60;;;;;;;;;;4994356;28;20030;-70
2022/07/14 10:58:03;;;;;;;5.45;1.75;;;;;;;;;;4994301;28;20395;-70
2022/07/14 11:00:28;;;;;;;;;;;;;;;;;;4994715;28;20029;-71
2022/07/14 11:03:16;;;;;;;5.50;1.60;;;;;;;;;;4993971;28;19938;-70
2022/07/14 11:06:01;;;;;;;4.03;1.35;;;;;;;;;;4994511;28;20038;-70
2022/07/14 11:08:27;;;;;;;1.83;1.00;;;;;;;;;;4994039;28;20026;-70
2022/07/14 11:10:54;;;;;;;2.65;1.00;;;;;;;;;;4994080;28;20447;-70
2022/07/14 11:13:20;;;;;;;2.80;1.02;;;;;;;;;;4994159;28;20019;-70
2022/07/14 11:15:53;;;;;;;3.65;1.10;;;;;;;;;;4994843;28;20081;-70
2022/07/14 11:18:24;;;;;;;3.92;1.50;;;;;;;;;;4993959;28;20027;-70
2022/07/14 11:21:00;;;;;;;2.65;1.05;;;;;;;;;;4994259;28;20034;-70
2022/07/14 11:23:30;;;;;;;2.80;1.35;;;;;;;;;;4994397;28;20023;-71
2022/07/14 11:25:58;;;;;;;2.40;1.20;;;;;;;;;;4976198;28;20451;-69
2022/07/14 11:28:30;;;;;;;6.72;1.85;;;;;;;;;;4993785;28;20023;-71
2022/07/14 11:31:12;;;;;;;2.47;1.23;;;;;;;;;;4993865;28;20022;-71
2022/07/14 11:36:27;;;;;;;4.05;1.45;;;;;;;;;;4994146;28;20080;-70
2022/07/14 11:39:12;;;;;;;7.53;1.83;;;;;;;;;;4993736;28;20477;-70
2022/07/14 11:41:42;;;;;;;3.72;1.30;;;;;;;;;;4993970;28;20105;-70
2022/07/14 11:44:28;;;;;;;10.48;2.05;;;;;;;;;;4993973;28;20547;-70
2022/07/14 11:47:01;;;;;;;7.78;1.77;;;;;;;;;;4993561;28;20053;-70
2022/07/14 11:49:27;;;;;;;4.20;1.40;;;;;;;;;;4993900;28;20492;-70
2022/07/14 11:51:56;;;;;;;2.58;1.25;;;;;;;;;;4993934;28;20031;-70
2022/07/14 11:54:23;;;;;;;3.60;1.40;;;;;;;;;;4994183;28;20026;-70
2022/07/14 11:56:49;;;;;;;6.90;1.60;;;;;;;;;;4994167;28;20057;-70
2022/07/14 11:59:19;;;;;;;2.28;1.38;;;;;;;;;;4976043;28;20054;-71
2022/07/14 12:01:45;;;;;;;3.33;1.48;;;;;;;;;;4993566;28;20022;-70
2022/07/14 12:04:14;;;;;;;4.93;1.80;;;;;;;;;;4993107;28;20042;-70
2022/07/14 12:06:43;;;;;;;2.80;1.70;;;;;;;;;;4976070;28;20370;-71
2022/07/14 12:09:09;;;;;;;3.83;1.70;;;;;;;;;;4993517;28;20039;-70
2022/07/14 12:11:36;;;;;;;6.13;1.60;;;;;;;;;;4993439;28;20034;-71
2022/07/14 12:14:02;;;;;;;4.75;1.63;;;;;;;;;;4993475;28;20030;-70
2022/07/14 12:16:29;;;;;;;4.78;1.48;;;;;;;;;;4994540;28;20384;-69
2022/07/14 12:18:56;;;;;;;3.42;1.40;;;;;;;;;;4993401;28;20470;-70
2022/07/14 12:21:32;;;;;;;4.13;1.60;;;;;;;;;;4975986;28;20026;-71
2022/07/14 12:23:58;;;;;;;4.25;1.50;;;;;;;;;;4994166;28;20041;-71
2022/07/14 12:26:25;;;;;;;4.18;1.55;;;;;;;;;;4997028;28;20481;-70
2022/07/14 12:28:52;;;;;;;4.97;1.50;;;;;;;;;;4997181;28;20480;-70
2022/07/14 12:31:19;;;;;;;3.05;1.30;;;;;;;;;;4996962;28;20105;-70
2022/07/14 12:33:46;;;;;;;1.58;1.10;;;;;;;;;;4997213;28;20501;-71
2022/07/14 12:36:16;;;;;;;5.25;1.58;;;;;;;;;;4997184;28;20028;-70
2022/07/14 12:38:43;;;;;;;5.45;1.50;;;;;;;;;;4996840;28;20084;-71
2022/07/14 12:41:09;;;;;;;6.18;2.13;;;;;;;;;;4997045;28;20494;-70
2022/07/14 12:43:37;;;;;;;3.55;1.52;;;;;;;;;;4979264;28;20508;-70
2022/07/14 12:46:23;;;;;;;3.60;1.60;;;;;;;;;;4996680;28;20035;-71
2022/07/14 12:48:49;;;;;;;2.97;1.23;;;;;;;;;;4996934;28;20054;-72
2022/07/14 12:51:21;;;;;;;4.97;1.40;;;;;;;;;;4996639;28;20472;-71
2022/07/14 12:54:00;;;;;;;4.95;1.55;;;;;;;;;;4997086;28;20026;-71
2022/07/14 12:56:27;;;;;;;2.67;1.40;;;;;;;;;;4997067;28;20027;-71
2022/07/14 12:58:53;;;;;;;4.13;1.63;;;;;;;;;;4978958;28;20467;-70
2022/07/14 13:01:19;;;;;;;4.35;1.85;;;;;;;;;;4996366;28;20084;-69
2022/07/14 13:04:02;;;;;;;6.47;1.60;;;;;;;;;;4996049;28;20050;-71
2022/07/14 13:06:29;;;;;;;4.45;1.58;;;;;;;;;;4996623;28;20030;-71
2022/07/14 13:08:55;;;;;;;4.30;1.45;;;;;;;;;;4996226;28;20034;-71
2022/07/14 13:11:27;;;;;;;3.20;1.60;;;;;;;;;;4996537;28;20105;-71
2022/07/14 13:13:54;;;;;;;7.35;1.63;;;;;;;;;;4996778;28;20022;-69
2022/07/14 13:16:32;;;;;;;4.25;1.48;;;;;;;;;;4996892;28;20384;-70
2022/07/14 13:19:02;;;;;;;4.93;1.70;;;;;;;;;;4996709;28;20030;-70
2022/07/14 13:21:47;;;;;;;4.30;1.67;;;;;;;;;;4978600;28;20116;-70
2022/07/14 13:24:17;;;;;;;5.68;1.73;;;;;;;;;;4996603;28;20038;-71
2022/07/14 13:26:44;;;;;;;4.38;1.85;;;;;;;;;;4995770;28;20046;-70
2022/07/14 13:29:10;;;;;;;5.97;1.50;;;;;;;;;;4995934;28;20022;-71
2022/07/14 13:31:36;;;;;;;5.28;1.40;;;;;;;;;;4996143;28;20129;-71
2022/07/14 13:34:03;;;;;;;2.67;1.35;;;;;;;;;;4995805;28;20214;-71
2022/07/14 13:36:30;;;;;;;5.28;1.65;;;;;;;;;;4994551;28;20023;-71
2022/07/14 13:38:58;;;;;;;7.28;1.73;;;;;;;;;;4996045;28;20030;-70
2022/07/14 13:41:24;;;;;;;3.50;1.40;;;;;;;;;;4995747;28;20023;-70
2022/07/14 13:43:50;;;;;;;3.60;1.50;;;;;;;;;;4995952;28;20049;-70
2022/07/14 13:46:17;;;;;;;4.40;1.60;;;;;;;;;;4995568;28;20030;-71
2022/07/14 13:48:44;;;;;;;3.40;1.58;;;;;;;;;;4995474;28;20070;-71
2022/07/14 13:53:55;;;;;;;4.82;1.30;;;;;;;;;;4995775;28;20030;-70
2022/07/14 13:56:21;;;;;;;3.55;1.35;;;;;;;;;;4995701;28;20025;-71
2022/07/14 13:58:47;;;;;;;2.15;1.52;;;;;;;;;;4995360;28;20464;-70
2022/07/14 14:01:13;;;;;;;3.65;1.50;;;;;;;;;;4995467;28;20034;-70
2022/07/14 14:03:40;;;;;;;2.47;1.33;;;;;;;;;;4995103;28;20531;-70
2022/07/14 14:06:10;;;;;;;3.80;1.70;;;;;;;;;;4995192;28;20030;-71
2022/07/14 14:08:36;;;;;;;4.25;1.40;;;;;;;;;;4995690;28;20026;-70
2022/07/14 14:11:03;;;;;;;4.03;1.52;;;;;;;;;;4977706;28;20030;-70
2022/07/14 14:13:29;;;;;;;7.25;1.60;;;;;;;;;;4995328;28;20022;-71
2022/07/14 14:15:56;;;;;;;2.47;1.45;;;;;;;;;;4995830;28;20373;-70
2022/07/14 14:18:22;;;;;;;3.42;1.70;;;;;;;;;;4977575;28;20027;-69
2022/07/14 14:20:48;;;;;;;2.42;1.20;;;;;;;;;;4994930;28;20030;-69
2022/07/14 14:23:15;;;;;;;2.72;1.50;;;;;;;;;;4994915;28;20037;-71
2022/07/14 14:25:42;;;;;;;4.05;1.50;;;;;;;;;;4994918;28;20030;-70
2022/07/14 14:28:09;;;;;;;4.30;1.50;;;;;;;;;;4995314;28;20110;-70
2022/07/14 14:30:37;;;;;;;5.75;1.65;;;;;;;;;;4994803;28;20076;-69
2022/07/14 14:33:03;;;;;;;3.78;1.60;;;;;;;;;;4994730;28;20050;-70
2022/07/14 14:35:29;;;;;;;2.47;1.27;;;;;;;;;;4994898;28;20037;-71
2022/07/14 14:37:55;;;;;;;2.83;1.38;;;;;;;;;;4994882;28;20028;-71
2022/07/14 14:40:22;;;;;;;1.92;1.33;;;;;;;;;;4994577;28;20030;-70
2022/07/14 14:42:48;;;;;;;3.80;1.55;;;;;;;;;;4994560;28;20037;-70
2022/07/14 14:45:14;;;;;;;4.68;1.58;;;;;;;;;;4994533;28;20034;-71
2022/07/14 14:47:40;;;;;;;3.55;1.50;;;;;;;;;;4993990;28;20027;-70
2022/07/14 14:50:07;;;;;;;2.20;1.40;;;;;;;;;;4994422;28;20023;-69
2022/07/14 14:52:34;;;;;;;5.28;1.52;;;;;;;;;;4994337;28;20149;-70